• Join FlightAware (Why Join?)
  • Login
  • US Flag 
08:24AM EDT


 

Airport Tracker/Info


-or-


 

Live Flight TrackerFlight Track Log ✈ C-GYYP ✈ 16-Jan-2014 ✈ CYBW - CYQU

Flight Track Log - Related Links

Times and Time Zones

All times are in EST time to prevent confusion due to time zone crossing. See the C-GYYP flight status page for this flight to view local times or setup timezone preferences in your user account.

Time Position Orientation Groundspeed Altitude Reporting Facility
EST Latitude Longitude Course Direction KTS MPH feet Rate Location/Type
04:16PM 51.0833 -114.5167 340° North 120 138 7,500  Level Edmonton Center
04:17PM 51.1000 -114.5500 309° West 130 150 8,000 120 Climbing Edmonton Center
04:19PM 51.3336 -114.6033 337° Northwest  Level Estimated
04:19PM 51.2000 -114.5500 360° North 160 184 7,900  Level Edmonton Center
04:20PM 51.3760 -114.6286 340° North  Level FlightAware Approximate
04:20PM 51.2500 -114.5333 12° North 170 196 7,900  Level Edmonton Center
04:21PM 51.4184 -114.6539 340° North  Level FlightAware Approximate
04:21PM 51.2833 -114.5667 328° Northwest 160 184 7,900  Level Edmonton Center
04:22PM 51.3333 -114.5667 360° North 160 184 7,800  Descending Edmonton Center
04:23PM 51.3667 -114.6167 317° Northwest 160 184 7,900 60 Climbing Edmonton Center
04:24PM 51.4000 -114.6500 328° Northwest 160 184 8,000  Climbing Edmonton Center
04:25PM 51.4500 -114.6500 360° North 160 184 8,000  Level Edmonton Center
04:26PM 51.4833 -114.7000 317° Northwest 160 184 8,000  Level Edmonton Center
04:27PM 51.5333 -114.7333 337° Northwest 160 184 8,000  Level Edmonton Center
04:28PM 51.5667 -114.7333 360° North 160 184 8,000  Level Edmonton Center
04:29PM 51.6167 -114.7833 328° Northwest 160 184 8,000  Level Edmonton Center
04:30PM 51.6500 -114.8167 328° Northwest 160 184 8,000  Level Edmonton Center
04:31PM 51.7000 -114.8167 360° North 160 184 8,000  Level Edmonton Center
04:32PM 51.7500 -114.8667 328° Northwest 160 184 8,000  Level Edmonton Center
04:33PM 51.7833 -114.8667 360° North 160 184 8,000  Level Edmonton Center
04:34PM 51.8333 -114.9000 338° Northwest 160 184 8,000  Level Edmonton Center
04:35PM 51.8500 -114.9500 298° West 160 184 8,000  Level Edmonton Center
04:36PM 51.9000 -114.9500 360° North 160 184 8,000  Level Edmonton Center
04:37PM 51.9333 -114.9833 328° Northwest 160 184 8,000  Level Edmonton Center
04:38PM 51.9833 -115.0333 328° Northwest 150 173 8,000  Level Edmonton Center
04:39PM 52.0167 -115.0333 360° North 150 173 8,000  Level Edmonton Center
04:40PM 52.0667 -115.0667 338° Northwest 160 184 8,000  Level Edmonton Center
04:41PM 52.1000 -115.1167 317° Northwest 150 173 8,000  Level Edmonton Center
04:42PM 52.1500 -115.1167 360° North 160 184 8,000  Level Edmonton Center
04:43PM 52.1833 -115.1500 328° Northwest 150 173 8,000  Level Edmonton Center
04:44PM 52.2333 -115.2000 329° Northwest 160 184 8,000  Level Edmonton Center
04:45PM 52.2667 -115.2000 360° North 160 184 8,000  Level Edmonton Center
04:46PM 52.3000 -115.2500 317° Northwest 150 173 8,000  Level Edmonton Center
04:47PM 52.3333 -115.2500 360° North 150 173 8,000  Level Edmonton Center
04:48PM 52.3833 -115.3000 329° Northwest 150 173 8,000  Level Edmonton Center
04:49PM 52.4167 -115.3000 360° North 150 173 8,000  Level Edmonton Center
04:50PM 52.4667 -115.3333 338° Northwest 150 173 8,000  Level Edmonton Center
04:51PM 52.5000 -115.3833 318° Northwest 150 173 8,000  Level Edmonton Center
04:52PM 52.5333 -115.4167 329° Northwest 150 173 8,000  Level Edmonton Center
04:53PM 52.5500 -115.4667 299° West 150 173 8,000  Level Edmonton Center
04:54PM 52.5833 -115.5167 318° Northwest 150 173 8,000  Level Edmonton Center
04:55PM 52.6333 -115.5500 338° Northwest 160 184 8,000  Level Edmonton Center
04:56PM 52.6667 -115.5833 329° Northwest 140 161 8,000  Level Edmonton Center
04:57PM 52.7000 -115.6167 329° Northwest 150 173 8,000  Level Edmonton Center
04:58PM 52.7333 -115.6833 310° West 150 173 8,000  Level Edmonton Center
05:00PM 52.8000 -115.7667 323° Northwest 150 173 8,000  Level Edmonton Center
05:01PM 52.8333 -115.8000 329° Northwest 150 173 8,000  Level Edmonton Center
05:02PM 52.8667 -115.8333 329° Northwest 150 173 8,000  Level Edmonton Center
05:03PM 52.9167 -115.9000 321° Northwest 150 173 8,000  Level Edmonton Center
05:04PM 52.9333 -115.9333 310° West 160 184 8,000  Level Edmonton Center
05:05PM 52.9667 -115.9833 318° Northwest 150 173 8,000  Level Edmonton Center
05:06PM 53.0000 -116.0167 329° Northwest 160 184 8,000  Level Edmonton Center
05:07PM 53.0500 -116.0500 338° Northwest 150 173 8,000  Level Edmonton Center
05:08PM 53.0833 -116.1000 318° Northwest 150 173 8,000  Level Edmonton Center
05:09PM 53.1000 -116.1500 299° West 150 173 8,000  Level Edmonton Center
05:10PM 53.1333 -116.2000 318° Northwest 150 173 8,000  Level Edmonton Center
05:11PM 53.1667 -116.2333 329° Northwest 150 173 8,000  Level Edmonton Center
05:12PM 53.2167 -116.2667 338° Northwest 150 173 8,000  Level Edmonton Center
05:13PM 53.2500 -116.3167 318° Northwest 150 173 8,000  Level Edmonton Center
05:14PM 53.2667 -116.3667 299° West 150 173 8,000  Level Edmonton Center
05:15PM 53.3000 -116.4167 318° Northwest 160 184 8,000  Level Edmonton Center
05:16PM 53.3500 -116.4500 338° Northwest 150 173 8,000  Level Edmonton Center
05:17PM 53.3833 -116.4833 329° Northwest 150 173 8,000  Level Edmonton Center
05:31PM 53.8667 -117.1167 323° Northwest 150 173 8,000  Level Edmonton Center
05:32PM 53.8928 -117.1325 323° Northwest  Level FlightAware Approximate
05:32PM 53.9000 -117.1667 319° Northwest 150 173 8,000  Level Edmonton Center
05:33PM 53.9271 -117.1769 323° Northwest  Level FlightAware Approximate
05:33PM 53.9167 -117.2333 293° West 150 173 8,000  Level Edmonton Center
05:34PM 53.9613 -117.2214 323° Northwest  Level FlightAware Approximate
05:34PM 53.9667 -117.2667 339° North 150 173 8,000  Level Edmonton Center
05:35PM 53.9956 -117.2660 323° Northwest  Level FlightAware Approximate
05:35PM 54.0000 -117.3167 319° Northwest 150 173 8,000  Level Edmonton Center
05:36PM 54.0298 -117.3106 323° Northwest  Level FlightAware Approximate
05:36PM 54.0333 -117.3500 330° Northwest 150 173 8,000  Level Edmonton Center
05:37PM 54.0641 -117.3554 323° Northwest  Level FlightAware Approximate
05:37PM 54.0500 -117.3833 310° West 150 173 8,000  Level Edmonton Center
05:38PM 54.0833 -117.4500 310° West 150 173 8,000  Level Edmonton Center
05:39PM 54.1333 -117.5000 330° Northwest 150 173 8,000  Level Edmonton Center
05:40PM 54.1667 -117.5333 330° Northwest 150 173 8,000  Level Edmonton Center
05:41PM 54.2000 -117.5833 319° Northwest 150 173 8,000  Level Edmonton Center
05:42PM 54.2167 -117.6167 311° West 150 173 8,000  Level Edmonton Center
05:43PM 54.2500 -117.6500 330° Northwest 150 173 8,000  Level Edmonton Center
05:44PM 54.2833 -117.7167 311° West 150 173 8,000  Level Edmonton Center
05:45PM 54.3333 -117.7667 330° Northwest 150 173 8,000  Level Edmonton Center
05:46PM 54.3500 -117.8000 311° West 150 173 8,000  Level Edmonton Center
05:47PM 54.3833 -117.8500 319° Northwest 150 173 8,000  Level Edmonton Center
05:48PM 54.4333 -117.8833 339° North 150 173 8,000  Level Edmonton Center
05:49PM 54.4667 -117.9333 319° Northwest 150 173 8,000  Level Edmonton Center
05:50PM 54.4833 -118.0000 293° West 150 173 8,000  Level Edmonton Center
05:51PM 54.5167 -118.0333 330° Northwest 150 173 8,000  Level Edmonton Center
05:52PM 54.5667 -118.0833 330° Northwest 150 173 8,000  Level Edmonton Center
05:53PM 54.6000 -118.1167 330° Northwest 150 173 8,000  Level Edmonton Center
05:54PM 54.6167 -118.1833 293° West 150 173 8,000  Level Edmonton Center
05:55PM 54.6500 -118.2333 319° Northwest 160 184 8,000  Level Edmonton Center
05:56PM 54.7000 -118.2667 339° North 160 184 8,000  Level Edmonton Center
05:57PM 54.7333 -118.3167 319° Northwest 150 173 8,000  Level Edmonton Center
05:58PM 54.7500 -118.3500 311° West 160 184 8,000  Level Edmonton Center
05:59PM 54.7833 -118.4167 311° West 160 184 8,000 -300 Level Edmonton Center
06:00PM 54.8333 -118.4667 330° Northwest 160 184 7,500 -480 Descending Edmonton Center
06:01PM 54.8667 -118.5167 319° Northwest 160 184 7,100 -480 Descending Edmonton Center
06:02PM 54.8833 -118.5500 311° West 160 184 6,600 -480 Descending Edmonton Center
06:03PM 54.9333 -118.6000 330° Northwest 160 184 6,200 -420 Descending Edmonton Center
06:04PM 54.9667 -118.6333 330° Northwest 150 173 5,800 -540 Descending Edmonton Center
06:05PM 55.0167 -118.6833 330° Northwest 150 173 5,200 -540 Descending Edmonton Center
06:06PM 55.0333 -118.7167 311° West 150 173 4,800 -240 Descending Edmonton Center
06:07PM 55.0500 -118.7667 300° West 130 150 4,800 -360 Level Edmonton Center
06:08PM 55.0833 -118.8000 330° Northwest 110 127 4,100 -480 Descending Edmonton Center
06:09PM 55.1000 -118.8333 311° West 80 92 3,900 -480 Descending Edmonton Center
06:10PM 55.1167 -118.8667 311° West 90 104 3,200 -600 Descending Edmonton Center
06:11PM 55.1167 -118.9000 270° West 100 115 2,700 -540 Descending Edmonton Center
06:12PM 55.1500 -118.9500 319° Northwest 100 115 2,200 -540 Descending Edmonton Center